Time;durP1;ratioP1;P1;durP2;ratioP2;P2;SDS_P1;SDS_P2;PMS_P1;PMS_P2;Temp;Humidity;BMP_temperature;BMP_pressure;BME280_temperature;BME280_humidity;BME280_pressure;Samples;Min_cycle;Max_cycle;Signal;HPM_P1;HPM_P2
2022/03/27 00:02:18;;;;;;;16.17;6.57;;;9.50;99.90;;;9.61;68.16;102403.16;5245554;28;20044;-71
2022/03/27 00:04:50;;;;;;;21.35;6.93;;;9.50;99.90;;;9.60;67.87;102409.16;5245333;28;20307;-70
2022/03/27 00:07:23;;;;;;;14.75;6.53;;;9.50;99.90;;;9.60;68.07;102403.94;5245168;28;20084;-70
2022/03/27 00:09:55;;;;;;;15.50;7.15;;;9.50;99.90;;;9.61;68.14;102406.66;5245335;28;20506;-71
2022/03/27 00:12:27;;;;;;;15.60;6.80;;;9.50;99.90;;;9.61;67.68;102405.75;5245695;28;20497;-72
2022/03/27 00:15:01;;;;;;;15.57;7.22;;;9.50;99.90;;;9.59;67.94;102403.06;5245139;28;20098;-70
2022/03/27 00:17:34;;;;;;;14.15;6.68;;;9.50;99.90;;;9.57;67.61;102403.75;5244821;28;20053;-71
2022/03/27 00:20:09;;;;;;;16.73;6.90;;;9.50;99.90;;;9.52;67.67;102399.16;5245338;28;20138;-71
2022/03/27 00:22:42;;;;;;;13.75;6.30;;;9.40;99.90;;;9.46;67.91;102396.16;5245277;28;20048;-71
2022/03/27 00:25:14;;;;;;;17.88;7.05;;;9.40;99.90;;;9.41;68.35;102397.56;5245273;28;20499;-70
2022/03/27 00:27:46;;;;;;;16.42;6.68;;;9.30;99.90;;;9.37;68.75;102400.75;5244730;28;20060;-70
2022/03/27 00:30:18;;;;;;;19.10;7.20;;;9.30;99.90;;;9.34;68.42;102399.66;5248602;28;20048;-70
2022/03/27 00:32:50;;;;;;;15.63;6.82;;;9.20;99.90;;;9.29;69.14;102401.97;5249333;28;20060;-70
2022/03/27 00:35:22;;;;;;;13.57;6.35;;;9.20;99.90;;;9.23;69.05;102397.25;5249083;28;20512;-71
2022/03/27 00:37:56;;;;;;;13.65;6.07;;;9.20;99.90;;;9.18;69.62;102403.84;5248371;28;20051;-71
2022/03/27 00:40:28;;;;;;;14.40;6.43;;;9.10;99.90;;;9.15;69.81;102401.06;5248952;28;20067;-71
2022/03/27 00:43:00;;;;;;;17.02;6.63;;;9.10;99.90;;;9.13;70.19;102409.56;5249011;28;20409;-70
2022/03/27 00:45:32;;;;;;;16.73;6.75;;;9.00;99.90;;;9.12;70.16;102403.44;5249092;28;20453;-71
2022/03/27 00:48:05;;;;;;;18.00;6.75;;;9.00;99.90;;;9.12;69.68;102402.53;5248316;28;20048;-70
2022/03/27 00:50:37;;;;;;;17.15;7.00;;;9.00;99.90;;;9.11;69.46;102400.75;5248513;28;20052;-71
2022/03/27 00:53:10;;;;;;;16.13;6.43;;;9.10;99.90;;;9.09;69.61;102404.94;5248698;28;20044;-70
2022/03/27 00:55:44;;;;;;;17.23;6.43;;;9.00;99.90;;;9.03;69.46;102404.53;5248601;28;20058;-71
2022/03/27 00:58:17;;;;;;;15.00;6.22;;;9.00;99.90;;;8.99;70.00;102395.63;5254183;28;20055;-71
2022/03/27 01:00:56;;;;;;;18.38;7.53;;;8.90;99.90;;;9.00;70.00;102405.25;5262774;28;20131;-70
2022/03/27 01:03:28;;;;;;;18.13;7.82;;;8.90;99.90;;;9.02;70.02;102403.66;5248627;28;20056;-70
2022/03/27 01:06:00;;;;;;;19.60;7.93;;;8.90;99.90;;;9.03;69.69;102404.53;5248736;28;20048;-70
2022/03/27 01:11:23;;;;;;;22.35;8.27;;;8.90;99.90;;;8.91;70.17;102391.63;5294401;22;20074;-70
2022/03/27 01:13:57;;;;;;;19.13;7.03;;;8.90;99.90;;;8.90;69.73;102401.13;5227786;28;20049;-71
2022/03/27 01:16:39;;;;;;;18.42;7.78;;;8.90;99.90;;;8.85;70.19;102399.91;5226493;28;20063;-72
2022/03/27 01:19:13;;;;;;;16.98;7.15;;;8.80;99.90;;;8.80;70.25;102393.53;5225091;28;20063;-70
2022/03/27 01:21:47;;;;;;;18.77;7.88;;;8.80;99.90;;;8.75;70.35;102387.09;5227374;28;20045;-74
2022/03/27 01:24:19;;;;;;;20.58;8.50;;;8.70;99.90;;;8.72;70.77;102392.06;5227624;28;20056;-71
2022/03/27 01:26:52;;;;;;;17.70;8.05;;;8.70;99.90;;;8.70;70.75;102380.69;5227711;28;20136;-71
2022/03/27 01:29:24;;;;;;;20.33;7.97;;;8.60;99.90;;;8.67;71.26;102380.47;5227257;28;20049;-72
2022/03/27 01:31:56;;;;;;;19.35;7.93;;;8.60;99.90;;;8.65;71.14;102377.75;5227530;28;20048;-70
2022/03/27 01:34:28;;;;;;;19.90;7.90;;;8.60;99.90;;;8.60;70.90;102373.03;5215866;28;20049;-71
2022/03/27 01:37:07;;;;;;;22.55;8.63;;;8.50;99.90;;;8.53;71.73;102370.84;5206549;28;20060;-71
2022/03/27 01:39:39;;;;;;;18.27;8.00;;;8.50;99.90;;;8.47;71.86;102373.00;5206247;28;20111;-71
2022/03/27 01:42:12;;;;;;;16.27;7.03;;;8.40;99.90;;;8.45;72.05;102372.00;5206407;28;20048;-70
2022/03/27 01:44:44;;;;;;;18.50;7.88;;;8.40;99.90;;;8.43;72.22;102371.91;5207032;28;20435;-71
2022/03/27 01:47:16;;;;;;;19.75;8.05;;;8.40;99.90;;;8.39;72.33;102368.19;5206445;28;20050;-71
2022/03/27 01:49:48;;;;;;;18.55;8.13;;;8.40;99.90;;;8.36;72.95;102373.19;5206281;28;20484;-71
2022/03/27 01:52:21;;;;;;;16.42;7.43;;;8.30;99.90;;;8.34;72.95;102369.53;5206286;28;20049;-72
2022/03/27 01:54:54;;;;;;;17.15;7.18;;;8.30;99.90;;;8.33;73.39;102367.75;5206463;28;20649;-71
2022/03/27 01:57:26;;;;;;;20.02;7.72;;;8.30;99.90;;;8.31;72.65;102369.34;5205903;28;20081;-71
2022/03/27 01:59:58;;;;;;;16.63;8.13;;;8.30;99.90;;;8.27;73.43;102375.09;5206114;28;20053;-71
2022/03/27 02:02:30;;;;;;;23.27;7.82;;;8.20;99.90;;;8.21;73.29;102369.47;5206003;28;20060;-70
2022/03/27 02:05:04;;;;;;;18.13;7.57;;;8.20;99.90;;;8.17;73.38;102375.28;5214517;28;20124;-70
2022/03/27 02:07:38;;;;;;;22.13;8.40;;;8.20;99.90;;;8.16;73.61;102370.88;5205699;28;20321;-71
2022/03/27 02:10:11;;;;;;;23.23;8.63;;;8.10;99.90;;;8.15;74.05;102366.50;5206266;28;20144;-70
2022/03/27 02:12:43;;;;;;;19.65;8.60;;;8.10;99.90;;;8.14;74.11;102368.16;5206035;28;20055;-71
2022/03/27 02:15:15;;;;;;;22.13;9.65;;;8.10;99.90;;;8.13;74.06;102363.75;5206096;28;20049;-71
2022/03/27 02:17:47;;;;;;;23.88;9.20;;;8.10;99.90;;;8.11;73.87;102367.06;5205571;28;20049;-71
2022/03/27 02:20:19;;;;;;;21.27;8.80;;;8.10;99.90;;;8.10;73.71;102370.47;5205666;28;20052;-70
2022/03/27 02:22:52;;;;;;;21.23;8.15;;;8.10;99.90;;;8.06;74.00;102371.94;5220891;28;20530;-70
2022/03/27 02:25:24;;;;;;;18.25;8.70;;;8.00;99.90;;;8.03;74.11;102376.94;5226496;28;20045;-71
2022/03/27 02:27:57;;;;;;;20.38;8.40;;;8.00;99.90;;;8.00;74.58;102374.09;5226017;28;20406;-70
2022/03/27 02:30:29;;;;;;;18.88;8.20;;;8.00;99.90;;;7.97;74.49;102375.59;5226252;28;20060;-71
2022/03/27 02:33:01;;;;;;;21.15;7.88;;;8.00;99.90;;;7.93;74.49;102370.97;5226302;28;20137;-71
2022/03/27 02:35:33;;;;;;;21.60;8.85;;;7.90;99.90;;;7.88;75.01;102375.81;5226295;28;20055;-71
2022/03/27 02:38:07;;;;;;;21.08;9.27;;;7.90;99.90;;;7.85;74.71;102375.63;5225979;28;20414;-71
2022/03/27 02:40:42;;;;;;;20.40;8.07;;;7.90;99.90;;;7.81;75.19;102374.50;5225950;28;20049;-71
2022/03/27 02:43:14;;;;;;;21.33;8.65;;;7.80;99.90;;;7.78;75.19;102379.47;5225971;28;20049;-71
2022/03/27 02:45:48;;;;;;;21.73;9.27;;;7.80;99.90;;;7.78;75.38;102379.47;5226132;28;20516;-71
2022/03/27 02:48:20;;;;;;;19.25;8.98;;;7.80;99.90;;;7.77;75.57;102367.28;5225612;28;20398;-70
2022/03/27 02:50:52;;;;;;;27.15;9.23;;;7.80;99.90;;;7.76;75.79;102373.28;5225570;28;20083;-71
2022/03/27 02:53:25;;;;;;;23.92;9.60;;;7.70;99.90;;;7.78;75.86;102361.31;5225280;28;20056;-70
2022/03/27 02:55:57;;;;;;;22.15;8.75;;;7.70;99.90;;;7.80;75.11;102372.69;5225929;28;20053;-71
2022/03/27 02:58:29;;;;;;;19.17;8.85;;;7.70;99.90;;;7.80;75.69;102362.31;5225340;28;20059;-71
2022/03/27 03:01:02;;;;;;;20.85;8.98;;;7.80;99.90;;;7.80;75.27;102366.59;5225779;28;20067;-70
2022/03/27 03:03:34;;;;;;;23.48;8.80;;;7.80;99.90;;;7.78;74.93;102363.00;5225792;28;20049;-70
2022/03/27 03:06:08;;;;;;;22.13;9.45;;;7.80;99.90;;;7.74;75.14;102364.47;5225602;28;20048;-71
2022/03/27 03:08:42;;;;;;;26.70;9.93;;;7.70;99.90;;;7.73;75.61;102361.78;5225471;28;20470;-70
2022/03/27 03:11:15;;;;;;;22.70;9.90;;;7.70;99.90;;;7.75;76.01;102354.97;5225602;28;20091;-70
2022/03/27 03:13:47;;;;;;;24.73;9.60;;;7.70;99.90;;;7.75;75.37;102358.47;5225842;28;20072;-71
2022/03/27 03:16:22;;;;;;;24.50;9.95;;;7.80;99.90;;;7.79;75.14;102357.00;5225485;28;20260;-70
2022/03/27 03:18:54;;;;;;;25.13;9.77;;;7.80;99.90;;;7.80;74.99;102356.22;5225430;28;20057;-71
2022/03/27 03:21:27;;;;;;;23.58;9.90;;;7.80;99.90;;;7.77;75.24;102362.09;5225568;28;20387;-70
2022/03/27 03:24:00;;;;;;;21.75;10.07;;;7.80;99.90;;;7.72;75.08;102358.28;5225563;28;20500;-70
2022/03/27 03:26:32;;;;;;;23.25;10.02;;;7.70;99.90;;;7.65;75.29;102366.41;5225364;28;20049;-70
2022/03/27 03:29:04;;;;;;;24.40;9.80;;;7.70;99.90;;;7.60;75.76;102367.78;5224834;28;20048;-71
2022/03/27 03:31:36;;;;;;;22.67;8.88;;;7.60;99.90;;;7.54;75.67;102365.63;5225286;28;20448;-70
2022/03/27 03:34:08;;;;;;;22.27;9.05;;;7.60;99.90;;;7.50;75.70;102370.53;5225406;28;20044;-71
2022/03/27 03:36:42;;;;;;;23.88;9.50;;;7.50;99.90;;;7.46;76.05;102376.28;5225455;28;20055;-70
2022/03/27 03:39:16;;;;;;;23.98;9.88;;;7.50;99.90;;;7.42;76.60;102376.81;5225737;28;20049;-71
2022/03/27 03:41:48;;;;;;;24.48;8.60;;;7.50;99.90;;;7.39;76.48;102371.44;5225189;28;20132;-71
2022/03/27 03:44:20;;;;;;;25.42;9.40;;;7.40;99.90;;;7.34;76.86;102374.59;5225303;28;20052;-70
2022/03/27 03:46:52;;;;;;;21.48;9.80;;;7.40;99.90;;;7.30;76.62;102366.44;5225048;28;20142;-70
2022/03/27 03:49:24;;;;;;;22.40;9.88;;;7.30;99.90;;;7.27;76.85;102371.44;5224678;28;20049;-70
2022/03/27 03:51:57;;;;;;;24.17;9.45;;;7.30;99.90;;;7.25;77.72;102362.66;5222577;28;20084;-71
2022/03/27 03:54:30;;;;;;;25.02;9.88;;;7.30;99.90;;;7.20;77.37;102367.50;5204460;28;20091;-70
2022/03/27 03:57:03;;;;;;;25.65;9.85;;;7.20;99.90;;;7.18;78.17;102378.56;5204377;28;20410;-70
2022/03/27 03:59:36;;;;;;;22.73;9.75;;;7.20;99.90;;;7.17;77.79;102374.13;5204339;28;20441;-70
2022/03/27 04:02:09;;;;;;;21.83;9.60;;;7.20;99.90;;;7.14;77.96;102374.81;5204015;28;20138;-70
2022/03/27 04:04:41;;;;;;;22.38;9.13;;;7.20;99.90;;;7.12;78.02;102379.00;5208736;28;20548;-70
2022/03/27 04:07:14;;;;;;;20.02;8.73;;;7.20;99.90;;;7.11;78.34;102378.88;5208033;28;20056;-70
2022/03/27 04:09:47;;;;;;;22.73;9.80;;;7.10;99.90;;;7.08;78.14;102372.66;5208327;28;20140;-70
2022/03/27 04:12:19;;;;;;;23.52;9.07;;;7.10;99.90;;;7.06;78.57;102375.94;5208384;28;20053;-70
2022/03/27 04:14:51;;;;;;;21.63;10.02;;;7.10;99.90;;;7.06;78.52;102381.13;5208252;28;20406;-70
2022/03/27 04:17:23;;;;;;;23.58;9.20;;;7.10;99.90;;;7.04;78.36;102377.50;5208041;28;20456;-70
2022/03/27 04:19:55;;;;;;;23.90;9.98;;;7.10;99.90;;;7.02;78.33;102376.50;5207982;28;20045;-70
2022/03/27 04:22:27;;;;;;;22.23;10.05;;;7.00;99.90;;;7.00;78.50;102372.91;5208217;28;20414;-70
2022/03/27 04:25:00;;;;;;;24.40;9.23;;;7.10;99.90;;;7.00;78.38;102371.22;5208006;28;20049;-71
2022/03/27 04:27:32;;;;;;;24.67;9.60;;;7.00;99.90;;;7.01;78.74;102377.28;5207947;28;20053;-70
2022/03/27 04:30:08;;;;;;;22.98;8.20;;;7.10;99.90;;;7.00;78.80;102359.94;5208220;28;20049;-70
2022/03/27 04:32:41;;;;;;;23.35;9.85;;;7.00;99.90;;;6.98;78.71;102364.13;5208058;28;20041;-69
2022/03/27 04:35:13;;;;;;;21.55;9.23;;;7.00;99.90;;;6.97;79.19;102370.06;5207875;28;20421;-70
2022/03/27 04:37:47;;;;;;;25.05;10.13;;;7.00;99.90;;;6.98;78.07;102370.19;5207390;28;20053;-70
2022/03/27 04:40:20;;;;;;;21.92;8.80;;;7.00;99.90;;;6.98;77.92;102377.97;5207789;28;20057;-70
2022/03/27 04:42:52;;;;;;;26.38;9.60;;;7.00;99.90;;;6.98;77.75;102371.91;5207670;28;20050;-70
2022/03/27 04:45:25;;;;;;;23.48;9.35;;;7.00;99.90;;;6.95;77.78;102376.84;5207836;28;20050;-70
2022/03/27 04:47:57;;;;;;;23.27;8.65;;;7.00;99.90;;;6.92;78.38;102374.03;5207152;28;20055;-70
2022/03/27 04:50:29;;;;;;;22.08;8.70;;;6.90;99.90;;;6.89;77.97;102384.16;5207804;28;20049;-70
2022/03/27 04:53:01;;;;;;;22.02;9.52;;;6.90;99.90;;;6.86;78.90;102387.44;5207762;28;20052;-70
2022/03/27 04:55:34;;;;;;;20.45;8.52;;;6.90;99.90;;;6.86;78.40;102386.53;5207598;28;20140;-70
2022/03/27 04:58:09;;;;;;;24.02;9.32;;;6.90;99.90;;;6.86;78.41;102383.94;5207016;28;20083;-70
2022/03/27 05:00:41;;;;;;;25.70;9.50;;;6.80;99.90;;;6.86;79.09;102389.13;5207291;28;20057;-70
2022/03/27 05:03:13;;;;;;;25.90;10.25;;;6.90;99.90;;;6.85;79.23;102385.63;5207357;28;20050;-71
2022/03/27 05:05:45;;;;;;;25.48;9.68;;;6.80;99.90;;;6.84;78.74;102399.34;5207535;28;20490;-70
2022/03/27 05:08:17;;;;;;;25.00;9.93;;;6.80;99.90;;;6.84;79.40;102398.47;5207040;28;20049;-70
2022/03/27 05:10:51;;;;;;;23.00;9.77;;;6.90;99.90;;;6.80;78.71;102393.06;5206916;28;20052;-70
2022/03/27 05:13:23;;;;;;;23.75;10.15;;;6.80;99.90;;;6.75;78.97;102394.38;5207517;28;20048;-70
2022/03/27 05:18:32;;;;;;;24.45;10.63;;;6.80;99.90;;;6.67;79.53;102394.63;5231603;28;20041;-73
2022/03/27 05:21:04;;;;;;;25.65;10.52;;;6.70;99.90;;;6.67;79.89;102395.50;5254196;28;20048;-73
2022/03/27 05:23:36;;;;;;;23.33;10.50;;;6.70;99.90;;;6.70;80.16;102400.91;5227588;28;20044;-73
2022/03/27 05:26:10;;;;;;;24.98;10.35;;;6.70;99.90;;;6.72;80.01;102398.47;5227834;28;20049;-74
2022/03/27 05:28:42;;;;;;;24.75;10.00;;;6.70;99.90;;;6.72;80.05;102394.19;5235761;28;20642;-73
2022/03/27 05:31:14;;;;;;;27.65;10.98;;;6.70;99.90;;;6.71;80.65;102405.31;5248205;28;20048;-73
2022/03/27 05:33:46;;;;;;;26.38;10.70;;;6.70;99.90;;;6.71;80.54;102407.00;5248460;28;20122;-74
2022/03/27 05:36:18;;;;;;;26.75;10.25;;;6.80;99.90;;;6.69;80.19;102409.47;5248489;28;20405;-73
2022/03/27 05:38:50;;;;;;;23.80;9.68;;;6.70;99.90;;;6.70;80.42;102411.28;5248210;28;20504;-74
2022/03/27 05:41:23;;;;;;;27.45;10.40;;;6.70;99.90;;;6.71;80.84;102410.47;5248365;28;20055;-74
2022/03/27 05:43:56;;;;;;;23.98;9.70;;;6.70;99.90;;;6.72;80.57;102414.91;5248698;28;20071;-73
2022/03/27 05:46:28;;;;;;;23.33;10.27;;;6.70;99.90;;;6.75;80.42;102409.94;5248140;28;20049;-75
2022/03/27 05:49:00;;;;;;;23.42;10.45;;;6.70;99.90;;;6.78;80.61;102409.25;5247687;28;20048;-71
2022/03/27 05:51:32;;;;;;;23.95;9.98;;;6.80;99.90;;;6.85;80.63;102415.84;5248032;28;20059;-72
2022/03/27 05:54:04;;;;;;;27.30;10.27;;;6.80;99.90;;;6.89;80.69;102413.56;5247767;28;20136;-74
2022/03/27 05:56:37;;;;;;;22.80;9.32;;;6.90;99.90;;;6.97;80.38;102424.50;5247718;28;20132;-73
2022/03/27 05:59:09;;;;;;;23.33;11.07;;;6.90;99.90;;;7.05;80.60;102419.13;5247350;28;20049;-69
2022/03/27 06:01:41;;;;;;;26.17;10.43;;;7.00;99.90;;;7.13;80.75;102419.69;5248287;28;20501;-69
2022/03/27 06:04:13;;;;;;;21.67;9.50;;;7.10;99.90;;;7.20;80.41;102421.97;5234432;28;20045;-68
2022/03/27 06:06:45;;;;;;;23.42;9.90;;;7.10;99.90;;;7.26;80.21;102430.19;5226986;28;20055;-69
2022/03/27 06:09:17;;;;;;;24.50;10.30;;;7.20;99.90;;;7.34;80.36;102428.16;5227210;28;20052;-69
2022/03/27 06:11:51;;;;;;;28.15;11.18;;;7.30;99.90;;;7.44;80.12;102434.94;5227130;28;20079;-69
2022/03/27 06:14:23;;;;;;;24.17;11.02;;;7.40;99.90;;;7.54;79.74;102434.81;5227089;28;20049;-70
2022/03/27 06:16:55;;;;;;;21.02;9.23;;;7.40;99.90;;;7.61;79.57;102431.88;5227017;28;20505;-69
2022/03/27 06:19:30;;;;;;;22.70;10.30;;;7.50;99.90;;;7.71;78.72;102439.53;5226735;28;20049;-69
2022/03/27 06:22:02;;;;;;;24.10;10.50;;;7.60;99.90;;;7.89;78.64;102440.88;5227607;28;20155;-70
2022/03/27 06:24:34;;;;;;;23.50;10.05;;;7.70;99.90;;;9.01;78.34;102437.38;5226748;28;20382;-69
2022/03/27 06:27:07;;;;;;;23.42;10.45;;;8.20;99.90;;;10.81;72.81;102441.94;5225798;28;20136;-69
2022/03/27 06:29:39;;;;;;;22.63;10.23;;;9.20;99.90;;;12.58;65.51;102445.84;5226639;28;20048;-69
2022/03/27 06:32:11;;;;;;;24.13;10.20;;;10.50;99.90;;;14.16;58.35;102443.25;5226755;28;20084;-69
2022/03/27 06:34:43;;;;;;;20.73;10.00;;;11.80;99.90;;;15.44;53.09;102443.63;5226552;28;20051;-69
2022/03/27 06:37:15;;;;;;;25.02;10.70;;;13.00;98.50;;;16.61;48.41;102442.06;5226458;28;20127;-69
2022/03/27 06:39:48;;;;;;;22.80;10.15;;;14.10;94.10;;;17.68;45.04;102442.22;5226383;28;20045;-68
2022/03/27 06:42:21;;;;;;;23.92;11.35;;;15.20;89.50;;;18.63;42.73;102457.41;5226451;28;20486;-69
2022/03/27 06:44:55;;;;;;;22.42;11.48;;;16.20;82.40;;;19.45;40.51;102450.81;5226116;28;20127;-69
2022/03/27 06:47:29;;;;;;;20.50;11.00;;;17.00;75.80;;;20.19;38.79;102448.13;5225659;28;20091;-69
2022/03/27 06:50:02;;;;;;;23.98;11.90;;;17.70;71.40;;;20.92;37.43;102458.44;5226125;28;20132;-68
2022/03/27 06:52:36;;;;;;;19.98;11.07;;;18.40;67.90;;;21.63;35.53;102456.16;5226260;28;20048;-69
2022/03/27 06:55:10;;;;;;;22.98;11.20;;;19.10;64.30;;;22.12;34.39;102451.59;5226250;28;20045;-68
2022/03/27 06:57:44;;;;;;;22.02;11.85;;;19.60;61.40;;;22.62;33.48;102459.28;5225891;28;20323;-69
2022/03/27 07:03:09;;;;;;;22.80;12.93;;;20.30;58.30;;;21.59;34.39;102465.84;5226195;28;20072;-70
2022/03/27 07:05:43;;;;;;;;;;;19.90;58.20;;;20.66;35.97;102461.47;5226452;28;20064;-69
2022/03/27 07:08:18;;;;;;;23.90;11.20;;;19.30;59.30;;;20.69;36.26;102466.84;5225846;28;20345;-70
2022/03/27 07:10:51;;;;;;;22.35;12.52;;;19.10;60.40;;;20.98;35.75;102474.44;5226034;28;20135;-70
2022/03/27 07:13:25;;;;;;;21.30;11.05;;;19.10;60.20;;;20.68;36.24;102469.47;5226129;28;20115;-69
2022/03/27 07:15:57;;;;;;;21.10;12.18;;;19.00;60.40;;;20.27;36.88;102461.53;5225557;28;20045;-68
2022/03/27 07:18:30;;;;;;;21.52;11.50;;;18.70;60.70;;;19.95;37.29;102467.03;5223996;28;20068;-68
2022/03/27 07:21:02;;;;;;;20.77;11.52;;;18.50;61.00;;;19.63;37.92;102463.63;5232667;28;20048;-68
2022/03/27 07:23:34;;;;;;;21.58;11.60;;;18.20;61.70;;;19.46;38.61;102459.63;5243667;28;20072;-67
2022/03/27 07:26:06;;;;;;;22.98;12.32;;;18.10;62.40;;;20.02;37.82;102461.00;5244024;28;20051;-68
2022/03/27 07:28:39;;;;;;;24.85;12.10;;;18.20;62.80;;;20.56;36.59;102455.13;5245026;28;20049;-68
2022/03/27 07:31:12;;;;;;;23.48;12.10;;;18.50;61.70;;;20.50;36.38;102454.09;5234058;28;20404;-68
2022/03/27 07:33:44;;;;;;;24.15;12.02;;;18.60;60.90;;;20.29;36.78;102460.72;5235641;28;20053;-69
2022/03/27 07:36:16;;;;;;;23.52;11.82;;;18.60;61.00;;;20.17;37.26;102452.50;5224872;28;20052;-68
2022/03/27 07:38:48;;;;;;;25.92;12.57;;;18.50;61.30;;;20.62;37.03;102451.69;5225189;28;20045;-69
2022/03/27 07:41:20;;;;;;;22.20;11.88;;;18.70;61.80;;;21.55;35.78;102456.03;5240965;28;20049;-69
2022/03/27 07:43:53;;;;;;;24.48;12.27;;;19.20;61.10;;;22.81;34.01;102455.06;5223976;28;20049;-68
2022/03/27 07:46:26;;;;;;;22.73;11.93;;;20.10;59.70;;;23.92;32.72;102458.69;5225566;28;20055;-69
2022/03/27 07:48:58;;;;;;;23.10;11.95;;;20.90;58.40;;;24.95;30.48;102456.44;5225086;28;20056;-68
2022/03/27 07:51:30;;;;;;;23.33;12.57;;;21.80;56.20;;;25.76;29.18;102456.50;5226119;28;20055;-69
2022/03/27 07:54:02;;;;;;;24.60;12.95;;;22.60;54.20;;;26.44;28.25;102466.09;5245224;28;20041;-66
2022/03/27 07:56:36;;;;;;;21.20;12.27;;;23.30;52.70;;;26.82;27.70;102468.56;5237326;28;20512;-67
2022/03/27 07:59:09;;;;;;;25.83;13.50;;;23.70;51.40;;;26.83;27.45;102469.44;5241572;28;20053;-67
2022/03/27 08:01:41;;;;;;;22.70;12.73;;;23.70;51.00;;;27.13;27.34;102463.94;5245137;28;20066;-66
2022/03/27 08:04:13;;;;;;;23.60;12.63;;;23.90;51.00;;;27.46;26.75;102460.06;5228836;28;20049;-65
2022/03/27 08:06:47;;;;;;;25.15;14.05;;;24.20;50.30;;;27.57;26.42;102459.94;5227636;28;20475;-66
2022/03/27 08:09:19;;;;;;;21.52;13.23;;;24.40;49.60;;;27.83;26.34;102462.41;5232999;28;20056;-66
2022/03/27 08:11:52;;;;;;;22.40;12.50;;;24.60;49.50;;;28.03;25.72;102459.50;5234091;28;20051;-65
2022/03/27 08:14:28;;;;;;;20.13;12.35;;;24.80;48.70;;;28.01;26.07;102455.94;5223605;28;20057;-63
2022/03/27 08:17:00;;;;;;;18.13;9.15;;;24.90;48.70;;;27.84;26.19;102454.38;5232379;28;20053;-65
2022/03/27 08:19:32;;;;;;;22.30;11.85;;;24.90;48.60;;;27.56;26.43;102452.81;5225083;28;20049;-65
2022/03/27 08:22:05;;;;;;;22.08;12.70;;;24.70;48.60;;;27.40;26.72;102459.25;5225320;28;20071;-64
2022/03/27 08:24:37;;;;;;;19.70;11.07;;;24.60;48.80;;;27.31;26.91;102457.50;5224790;28;20060;-63
2022/03/27 08:27:10;;;;;;;21.10;11.15;;;24.40;49.00;;;27.30;27.29;102447.69;5224320;28;20045;-64
2022/03/27 08:29:44;;;;;;;20.75;12.07;;;24.40;49.60;;;27.40;27.26;102452.09;5224873;28;20526;-63
2022/03/27 08:32:18;;;;;;;18.85;10.05;;;24.50;49.60;;;27.60;27.25;102451.91;5224861;28;20055;-63
2022/03/27 08:34:50;;;;;;;21.92;11.85;;;24.60;49.70;;;27.90;26.69;102452.50;5224915;28;20132;-67
2022/03/27 08:37:22;;;;;;;21.88;12.23;;;24.80;49.30;;;27.77;26.85;102452.63;5224494;28;20502;-67
2022/03/27 08:39:54;;;;;;;17.10;9.93;;;24.80;49.00;;;27.63;26.94;102450.97;5224719;28;20084;-65
2022/03/27 08:42:27;;;;;;;21.70;12.10;;;24.80;48.90;;;27.85;26.69;102450.78;5224723;28;20176;-67
2022/03/27 08:45:01;;;;;;;21.05;11.50;;;24.90;48.80;;;27.94;26.47;102454.25;5224575;28;20045;-65
2022/03/27 08:47:33;;;;;;;21.38;11.57;;;25.10;48.40;;;27.51;27.12;102447.50;5224394;28;20049;-67
2022/03/27 08:50:16;;;;;;;24.63;12.30;;;24.80;48.80;;;27.20;27.84;102446.91;5226275;28;20423;-66
2022/03/27 08:52:57;;;;;;;21.80;11.55;;;24.70;49.50;;;27.31;27.77;102453.03;5229067;28;20059;-66
2022/03/27 08:55:40;;;;;;;19.98;12.10;;;24.70;49.40;;;27.40;27.84;102445.84;5228669;28;20049;-67
2022/03/27 08:58:12;;;;;;;20.45;12.25;;;24.80;49.50;;;27.23;27.71;102448.66;5227950;28;20049;-66
2022/03/27 09:00:46;;;;;;;23.90;12.35;;;24.70;49.30;;;26.55;28.52;102450.91;5228090;28;20137;-68
2022/03/27 09:03:21;;;;;;;22.15;11.80;;;24.40;49.60;;;25.94;29.70;102448.41;5235190;28;20047;-66
2022/03/27 09:05:54;;;;;;;21.80;12.43;;;24.00;50.50;;;25.33;30.54;102437.81;5235040;28;20053;-66
2022/03/27 09:08:26;;;;;;;22.60;11.07;;;23.50;51.10;;;24.96;31.60;102432.44;5233800;28;20413;-68
2022/03/27 09:10:58;;;;;;;21.33;11.80;;;23.20;52.10;;;24.76;31.93;102435.06;5239056;28;20048;-64
2022/03/27 09:13:32;;;;;;;23.50;12.25;;;23.10;52.80;;;24.35;32.06;102426.97;5228211;28;20485;-66
2022/03/27 09:16:08;;;;;;;21.00;11.98;;;22.90;52.40;;;23.66;33.55;102431.00;5228535;28;20049;-70
2022/03/27 09:18:47;;;;;;;19.95;11.75;;;22.60;53.30;;;22.85;34.67;102431.19;5228340;28;20049;-67
2022/03/27 09:21:21;;;;;;;23.83;11.93;;;22.10;54.00;;;22.36;36.25;102429.72;5230461;28;20496;-66
2022/03/27 09:23:55;;;;;;;21.98;11.63;;;21.70;55.30;;;21.83;36.99;102428.13;5236204;28;20139;-69
2022/03/27 09:26:28;;;;;;;22.00;11.52;;;21.30;56.00;;;21.56;38.22;102422.44;5243131;28;20052;-67
2022/03/27 09:29:09;;;;;;;27.02;11.13;;;21.00;57.30;;;21.42;38.84;102423.97;5219126;28;20056;-68
2022/03/27 09:31:43;;;;;;;;;;;20.80;57.90;;;21.13;39.14;102427.91;5227275;28;20053;-68
2022/03/27 09:34:19;;;;;;;19.55;9.77;;;20.60;58.40;;;20.80;40.15;102430.84;5238450;28;20277;-69
2022/03/27 09:36:51;;;;;;;20.50;10.82;;;20.30;59.40;;;20.80;40.55;102428.22;5228062;28;20053;-70
2022/03/27 09:39:24;;;;;;;23.25;11.02;;;20.20;60.10;;;20.93;40.78;102431.97;5234980;28;20052;-67
2022/03/27 09:41:59;;;;;;;20.63;10.95;;;20.20;60.60;;;20.95;40.84;102426.69;5245146;28;20424;-68
2022/03/27 09:44:34;;;;;;;24.05;11.27;;;20.20;60.90;;;21.06;41.20;102427.75;5233802;28;20045;-68
2022/03/27 09:47:10;;;;;;;21.05;10.63;;;20.20;61.50;;;21.15;41.27;102425.28;5234705;28;20044;-67
2022/03/27 09:49:46;;;;;;;19.17;10.82;;;20.30;61.70;;;21.18;41.46;102425.31;5227472;28;20053;-65
2022/03/27 09:52:21;;;;;;;21.90;10.45;;;20.40;62.00;;;21.18;41.85;102427.06;5225008;28;20484;-66
2022/03/27 09:54:56;;;;;;;22.95;11.25;;;20.40;62.40;;;21.13;41.68;102427.03;5228532;28;20045;-69
2022/03/27 09:57:30;;;;;;;20.83;11.15;;;20.40;62.30;;;21.00;41.85;102420.63;5246668;28;21273;-68
2022/03/27 10:00:17;;;;;;;20.23;10.18;;;20.30;62.40;;;21.00;42.21;102419.72;5234351;28;20415;-67
2022/03/27 10:02:52;;;;;;;24.60;10.95;;;20.20;63.00;;;21.14;42.62;102415.53;5248777;28;20194;-66
2022/03/27 10:05:24;;;;;;;;;;;20.30;63.80;;;21.25;42.15;102416.59;5240791;28;20079;-66
2022/03/27 10:07:56;;;;;;;23.23;10.27;;;20.40;63.70;;;21.29;42.15;102407.84;5236757;28;19924;-69
2022/03/27 10:10:29;;;;;;;20.35;10.30;;;20.40;63.60;;;21.33;42.26;102407.06;5232868;28;20052;-69
2022/03/27 10:13:01;;;;;;;19.67;10.27;;;20.40;63.80;;;21.39;41.92;102404.50;5239618;28;20053;-66
2022/03/27 10:15:34;;;;;;;21.88;10.32;;;20.50;63.70;;;21.44;42.03;102393.06;5231863;28;20048;-67
2022/03/27 10:18:13;;;;;;;21.00;10.82;;;20.50;64.30;;;21.56;42.22;102398.53;5226404;28;20053;-68
2022/03/27 10:20:47;;;;;;;21.10;10.35;;;20.60;64.20;;;21.62;41.78;102391.56;5227163;28;20052;-67
2022/03/27 10:23:24;;;;;;;21.60;10.95;;;20.70;63.90;;;21.55;41.76;102391.47;5227037;28;20135;-66
2022/03/27 10:26:01;;;;;;;21.40;11.27;;;20.60;63.50;;;21.56;42.60;102385.28;5226880;28;20057;-65
2022/03/27 10:28:34;;;;;;;19.35;10.43;;;20.70;64.50;;;21.61;42.58;102386.25;5229941;28;20091;-65
2022/03/27 10:31:07;;;;;;;22.17;10.55;;;20.70;64.60;;;21.64;42.26;102386.28;5247271;28;20056;-67
2022/03/27 10:33:40;;;;;;;22.23;10.95;;;20.70;64.50;;;21.58;42.33;102383.53;5247542;28;20052;-66
2022/03/27 10:36:18;;;;;;;22.40;10.90;;;20.70;64.60;;;21.38;43.00;102376.16;5247301;28;20044;-65
2022/03/27 10:39:00;;;;;;;24.08;11.13;;;20.50;65.00;;;21.38;43.02;102372.63;5246683;28;20059;-65
2022/03/27 10:41:38;;;;;;;20.40;10.25;;;20.50;65.30;;;21.48;42.89;102363.06;5246439;28;20570;-66
2022/03/27 10:44:20;;;;;;;20.90;10.93;;;20.50;65.70;;;21.39;42.00;102367.38;5239078;28;20075;-66